createdAt,value
2023-05-01T00:00:28.047Z,100698.81
2023-05-01T00:02:58.939Z,100697.78
2023-05-01T00:05:29.606Z,100701.53
2023-05-01T00:08:00.024Z,100696.72
2023-05-01T00:10:29.930Z,100688.53
2023-05-01T00:13:00.707Z,100684.41
2023-05-01T00:15:30.831Z,100689.88
2023-05-01T00:18:01.389Z,100699.78
2023-05-01T00:20:32.237Z,100704.75
2023-05-01T00:23:02.624Z,100696.38
2023-05-01T00:25:32.644Z,100697.03
2023-05-01T00:28:03.295Z,100697.94
2023-05-01T00:30:35.704Z,100688.38
2023-05-01T00:33:07.195Z,100694.78
2023-05-01T00:35:37.293Z,100704.00
2023-05-01T00:38:08.439Z,100699.94
2023-05-01T00:40:47.801Z,100692.59
2023-05-01T00:43:18.152Z,100694.22
2023-05-01T00:45:48.173Z,100704.69
2023-05-01T00:48:18.651Z,100704.97
2023-05-01T00:50:51.473Z,100711.19
2023-05-01T00:53:22.879Z,100710.84
2023-05-01T00:55:52.814Z,100713.16
2023-05-01T00:58:23.464Z,100714.25
2023-05-01T01:00:54.214Z,100712.81
2023-05-01T01:03:24.664Z,100717.00
2023-05-01T01:06:15.007Z,100718.22
2023-05-01T01:09:00.248Z,100721.22
2023-05-01T01:11:39.816Z,100727.16
2023-05-01T01:14:21.267Z,100714.22
2023-05-01T01:17:03.246Z,100720.28
2023-05-01T01:19:51.529Z,100724.97
2023-05-01T01:22:25.293Z,100718.94
2023-05-01T01:25:29.472Z,100718.06
2023-05-01T01:28:05.141Z,100715.72
2023-05-01T01:31:10.713Z,100719.25
2023-05-01T01:34:25.007Z,100724.59
2023-05-01T01:37:09.824Z,100718.66
2023-05-01T01:39:47.881Z,100736.41
2023-05-01T01:42:23.559Z,100728.56
2023-05-01T01:45:00.339Z,100723.03
2023-05-01T01:47:34.648Z,100720.84
2023-05-01T01:50:08.219Z,100719.66
2023-05-01T01:52:42.091Z,100721.50
2023-05-01T01:55:16.145Z,100726.78
2023-05-01T01:57:48.033Z,100718.13
2023-05-01T02:00:19.278Z,100718.06
2023-05-01T02:02:54.390Z,100708.66
2023-05-01T02:05:26.448Z,100708.78
2023-05-01T02:07:59.207Z,100708.81
2023-05-01T02:10:31.053Z,100705.69
2023-05-01T02:13:03.393Z,100697.31
2023-05-01T02:15:35.641Z,100689.28
2023-05-01T02:18:07.852Z,100692.84
2023-05-01T02:20:39.197Z,100682.81
2023-05-01T02:23:10.184Z,100684.41
2023-05-01T02:25:41.807Z,100687.13
2023-05-01T02:28:15.263Z,100689.19
2023-05-01T02:30:46.211Z,100677.44
2023-05-01T02:33:16.724Z,100678.06
2023-05-01T02:35:48.558Z,100665.69
2023-05-01T02:38:20.906Z,100667.22
2023-05-01T02:40:56.405Z,100672.56
2023-05-01T02:43:29.070Z,100666.25
2023-05-01T02:46:00.292Z,100664.94
2023-05-01T02:48:34.338Z,100665.22
2023-05-01T02:51:05.155Z,100653.28
2023-05-01T02:53:36.499Z,100667.19
2023-05-01T02:56:17.264Z,100667.22
2023-05-01T02:58:47.690Z,100659.38
2023-05-01T03:01:17.670Z,100662.63
2023-05-01T03:03:48.607Z,100659.78
2023-05-01T03:06:22.180Z,100660.50
2023-05-01T03:08:53.014Z,100658.69
2023-05-01T03:11:23.120Z,100654.41
2023-05-01T03:13:53.944Z,100650.66
2023-05-01T03:16:24.057Z,100635.69
2023-05-01T03:18:54.539Z,100639.69
2023-05-01T03:21:24.518Z,100643.78
2023-05-01T03:23:55.548Z,100633.13
2023-05-01T03:26:25.744Z,100641.56
2023-05-01T03:28:56.340Z,100640.44
2023-05-01T03:31:27.272Z,100655.16
2023-05-01T03:34:00.261Z,100651.19
2023-05-01T03:36:30.262Z,100650.00
2023-05-01T03:39:00.687Z,100647.03
2023-05-01T03:41:48.922Z,100645.41
2023-05-01T03:44:26.504Z,100649.97
2023-05-01T03:46:56.433Z,100657.66
2023-05-01T03:49:31.038Z,100651.25
2023-05-01T03:52:00.999Z,100650.97
2023-05-01T03:54:31.648Z,100651.84
2023-05-01T03:57:21.903Z,100653.88
2023-05-01T03:59:53.138Z,100666.56
2023-05-01T04:02:24.010Z,100659.78
2023-05-01T04:04:54.543Z,100662.91
2023-05-01T04:07:25.852Z,100661.84
2023-05-01T04:09:56.678Z,100664.47
2023-05-01T04:12:26.984Z,100659.03
2023-05-01T04:14:57.456Z,100670.09
2023-05-01T04:17:27.599Z,100666.00
2023-05-01T04:19:58.860Z,100668.78
2023-05-01T04:22:29.067Z,100667.06
2023-05-01T04:24:58.898Z,100669.03
2023-05-01T04:27:29.295Z,100681.44
2023-05-01T04:29:59.463Z,100671.53
2023-05-01T04:32:31.438Z,100677.53
2023-05-01T04:35:01.446Z,100675.22
2023-05-01T04:37:32.358Z,100661.13
2023-05-01T04:40:02.352Z,100662.66
2023-05-01T04:42:33.768Z,100660.03
2023-05-01T04:45:05.278Z,100668.75
2023-05-01T04:47:38.890Z,100669.25
2023-05-01T04:50:09.510Z,100667.97
2023-05-01T04:52:40.339Z,100665.69
2023-05-01T04:55:11.534Z,100658.75
2023-05-01T04:57:54.818Z,100660.72
2023-05-01T05:00:25.042Z,100664.31
2023-05-01T05:02:58.731Z,100653.19
2023-05-01T05:05:29.143Z,100651.81
2023-05-01T05:07:59.454Z,100653.75
2023-05-01T05:10:59.324Z,100659.25
2023-05-01T05:13:42.206Z,100665.44
2023-05-01T05:16:16.365Z,100656.72
2023-05-01T05:18:46.845Z,100651.16
2023-05-01T05:21:16.970Z,100652.19
2023-05-01T05:23:54.393Z,100657.56
2023-05-01T05:26:24.711Z,100654.00
2023-05-01T05:28:55.970Z,100642.25
2023-05-01T05:31:26.010Z,100645.50
2023-05-01T05:33:56.353Z,100649.81
2023-05-01T05:36:28.797Z,100652.03
2023-05-01T05:39:00.498Z,100648.41
2023-05-01T05:41:31.053Z,100655.38
2023-05-01T05:44:04.250Z,100654.72
2023-05-01T05:46:34.284Z,100655.56
2023-05-01T05:49:04.804Z,100650.00
2023-05-01T05:51:34.860Z,100647.69
2023-05-01T05:54:05.614Z,100648.41
2023-05-01T05:56:37.917Z,100644.22
2023-05-01T05:59:08.862Z,100648.72
2023-05-01T06:01:38.953Z,100648.25
2023-05-01T06:04:09.614Z,100651.75
2023-05-01T06:06:42.130Z,100650.47
2023-05-01T06:09:13.898Z,100644.03
2023-05-01T06:11:43.890Z,100647.16
2023-05-01T06:14:14.700Z,100638.09
2023-05-01T06:16:44.827Z,100645.16
2023-05-01T06:19:15.279Z,100640.25
2023-05-01T06:21:46.109Z,100645.34
2023-05-01T06:24:17.317Z,100648.47
2023-05-01T06:26:52.539Z,100653.16
2023-05-01T06:29:23.065Z,100642.56
2023-05-01T06:31:53.212Z,100634.41
2023-05-01T06:34:24.230Z,100639.16
2023-05-01T06:36:57.456Z,100633.53
2023-05-01T06:39:27.808Z,100629.94
2023-05-01T06:41:57.838Z,100630.50
2023-05-01T06:44:42.049Z,100629.28
2023-05-01T06:47:12.238Z,100629.91
2023-05-01T06:49:44.741Z,100624.69
2023-05-01T06:52:14.652Z,100629.31
2023-05-01T06:54:44.400Z,100627.19
2023-05-01T06:57:14.826Z,100623.38
2023-05-01T06:59:44.724Z,100622.53
2023-05-01T07:02:14.666Z,100629.34
2023-05-01T07:04:45.551Z,100628.28
2023-05-01T07:07:15.466Z,100636.03
2023-05-01T07:09:46.284Z,100635.88
2023-05-01T07:12:16.295Z,100635.47
2023-05-01T07:14:46.616Z,100636.69
2023-05-01T07:17:17.160Z,100635.13
2023-05-01T07:19:47.547Z,100634.25
2023-05-01T07:22:17.840Z,100631.38
2023-05-01T07:24:48.189Z,100631.41
2023-05-01T07:27:18.097Z,100630.47
2023-05-01T07:29:48.519Z,100623.50
2023-05-01T07:32:18.758Z,100625.16
2023-05-01T07:34:49.206Z,100620.97
2023-05-01T07:37:19.938Z,100612.31
2023-05-01T07:39:50.306Z,100611.66
2023-05-01T07:42:20.248Z,100606.16
2023-05-01T07:44:52.788Z,100610.91
2023-05-01T07:47:23.194Z,100609.59
2023-05-01T07:49:53.637Z,100609.94
2023-05-01T07:52:23.696Z,100613.13
2023-05-01T07:54:53.480Z,100616.06
2023-05-01T07:57:26.686Z,100614.75
2023-05-01T08:00:00.305Z,100625.94
2023-05-01T08:02:30.748Z,100627.44
2023-05-01T08:05:01.215Z,100625.84
2023-05-01T08:07:31.978Z,100627.38
2023-05-01T08:10:02.177Z,100647.09
2023-05-01T08:12:32.891Z,100641.00
2023-05-01T08:15:02.864Z,100646.00
2023-05-01T08:17:33.336Z,100652.56
2023-05-01T08:20:03.558Z,100647.81
2023-05-01T08:22:33.958Z,100651.41
2023-05-01T08:25:03.880Z,100641.59
2023-05-01T08:27:34.934Z,100642.69
2023-05-01T08:30:05.051Z,100640.34
2023-05-01T08:32:35.515Z,100649.59
2023-05-01T08:35:05.638Z,100653.19
2023-05-01T08:37:36.441Z,100655.75
2023-05-01T08:40:09.832Z,100660.69
2023-05-01T08:42:40.390Z,100657.00
2023-05-01T08:45:11.829Z,100660.59
2023-05-01T08:47:42.619Z,100651.69
2023-05-01T08:50:15.664Z,100647.28
2023-05-01T08:52:46.194Z,100654.38
2023-05-01T08:55:17.489Z,100661.41
2023-05-01T08:57:48.749Z,100657.81
2023-05-01T09:00:23.019Z,100657.63
2023-05-01T09:02:53.940Z,100664.84
2023-05-01T09:05:24.005Z,100662.47
2023-05-01T09:07:54.662Z,100664.56
2023-05-01T09:10:26.197Z,100670.34
2023-05-01T09:12:59.146Z,100673.06
2023-05-01T09:15:31.415Z,100675.00
2023-05-01T09:18:03.808Z,100671.22
2023-05-01T09:20:38.268Z,100672.66
2023-05-01T09:23:08.379Z,100677.16
2023-05-01T09:25:39.770Z,100688.34
2023-05-01T09:28:09.773Z,100689.44
2023-05-01T09:30:40.801Z,100701.28
2023-05-01T09:33:11.946Z,100703.97
2023-05-01T09:36:00.794Z,100697.44
2023-05-01T09:38:31.755Z,100707.84
2023-05-01T09:41:10.656Z,100707.13
2023-05-01T09:43:40.824Z,100704.50
2023-05-01T09:46:13.031Z,100709.13
2023-05-01T09:48:53.605Z,100705.00
2023-05-01T09:51:29.337Z,100714.16
2023-05-01T09:54:01.633Z,100710.91
2023-05-01T09:56:32.912Z,100720.34
2023-05-01T09:59:21.268Z,100714.03
2023-05-01T10:01:52.414Z,100726.66
2023-05-01T10:04:35.127Z,100727.66
2023-05-01T10:07:15.756Z,100731.97
2023-05-01T10:09:45.786Z,100731.13
2023-05-01T10:12:28.360Z,100725.63
2023-05-01T10:15:03.395Z,100725.25
2023-05-01T10:17:42.871Z,100740.09
2023-05-01T10:20:14.267Z,100742.09
2023-05-01T10:22:45.534Z,100748.97
2023-05-01T10:25:16.330Z,100752.28
2023-05-01T10:27:46.784Z,100750.66
2023-05-01T10:30:17.920Z,100754.25
2023-05-01T10:32:48.512Z,100753.78
2023-05-01T10:35:26.762Z,100759.84
2023-05-01T10:38:07.535Z,100756.22
2023-05-01T10:40:46.099Z,100761.97
2023-05-01T10:43:27.087Z,100763.16
2023-05-01T10:46:22.740Z,100764.59
2023-05-01T10:48:53.129Z,100768.75
2023-05-01T10:51:27.307Z,100759.00
2023-05-01T10:54:16.754Z,100765.38
2023-05-01T10:56:46.728Z,100763.94
2023-05-01T10:59:17.338Z,100759.25
2023-05-01T11:01:53.109Z,100766.44
2023-05-01T11:04:23.511Z,100775.03
2023-05-01T11:07:18.869Z,100772.72
2023-05-01T11:09:56.710Z,100778.75
2023-05-01T11:12:48.257Z,100769.28
2023-05-01T11:15:35.488Z,100771.78
2023-05-01T11:18:07.192Z,100767.44
2023-05-01T11:20:37.544Z,100766.19
2023-05-01T11:23:07.464Z,100765.00
2023-05-01T11:25:37.780Z,100771.88
2023-05-01T11:28:10.912Z,100776.34
2023-05-01T11:30:44.890Z,100788.56
2023-05-01T11:33:18.027Z,100782.41
2023-05-01T11:35:57.763Z,100787.59
2023-05-01T11:38:27.698Z,100789.50
2023-05-01T11:41:00.472Z,100789.34
2023-05-01T11:43:30.618Z,100799.03
2023-05-01T11:46:04.134Z,100800.56
2023-05-01T11:48:34.575Z,100798.66
2023-05-01T11:51:17.396Z,100807.84
2023-05-01T11:54:10.661Z,100809.81
2023-05-01T11:56:42.230Z,100807.94
2023-05-01T11:59:15.042Z,100809.75
2023-05-01T12:01:48.943Z,100812.84
2023-05-01T12:04:31.663Z,100812.63
2023-05-01T12:07:03.210Z,100814.09
2023-05-01T12:09:34.941Z,100811.56
2023-05-01T12:12:05.918Z,100819.69
2023-05-01T12:14:35.942Z,100814.03
2023-05-01T12:17:10.480Z,100818.28
2023-05-01T12:19:50.147Z,100826.50
2023-05-01T12:22:20.836Z,100836.16
2023-05-01T12:24:57.306Z,100834.69
2023-05-01T12:27:27.968Z,100840.03
2023-05-01T12:30:00.749Z,100841.56
2023-05-01T12:32:34.919Z,100842.22
2023-05-01T12:35:16.400Z,100837.34
2023-05-01T12:37:47.949Z,100838.72
2023-05-01T12:40:20.121Z,100842.41
2023-05-01T12:43:00.144Z,100839.59
2023-05-01T12:45:30.185Z,100848.03
2023-05-01T12:48:00.713Z,100845.34
2023-05-01T12:50:30.556Z,100846.19
2023-05-01T12:53:04.292Z,100843.84
2023-05-01T12:55:37.139Z,100838.31
2023-05-01T12:58:07.681Z,100840.53
2023-05-01T13:00:48.827Z,100852.34
2023-05-01T13:03:28.214Z,100843.66
2023-05-01T13:06:03.314Z,100853.78
2023-05-01T13:08:36.098Z,100872.63
2023-05-01T13:11:15.082Z,100863.91
2023-05-01T13:13:47.074Z,100844.41
2023-05-01T13:16:18.366Z,100840.22
2023-05-01T13:18:52.288Z,100847.72
2023-05-01T13:21:26.386Z,100847.22
2023-05-01T13:23:58.596Z,100850.63
2023-05-01T13:26:34.001Z,100853.28
2023-05-01T13:29:06.730Z,100859.25
2023-05-01T13:31:36.771Z,100855.69
2023-05-01T13:34:06.878Z,100852.00
2023-05-01T13:36:37.620Z,100866.97
2023-05-01T13:39:07.880Z,100871.09
2023-05-01T13:41:43.679Z,100862.22
2023-05-01T13:44:14.158Z,100868.59
2023-05-01T13:46:44.691Z,100872.34
2023-05-01T13:49:16.021Z,100866.06
2023-05-01T13:51:47.805Z,100860.13
2023-05-01T13:54:19.132Z,100874.16
2023-05-01T13:56:49.045Z,100875.22
2023-05-01T13:59:18.937Z,100878.94
2023-05-01T14:01:49.082Z,100876.53
2023-05-01T14:04:22.228Z,100875.94
2023-05-01T14:06:52.535Z,100872.91
2023-05-01T14:09:23.231Z,100873.78
2023-05-01T14:12:00.731Z,100868.38
2023-05-01T14:14:31.881Z,100859.97
2023-05-01T14:17:01.826Z,100860.88
2023-05-01T14:19:31.590Z,100848.84
2023-05-01T14:22:01.982Z,100861.41
2023-05-01T14:24:31.967Z,100861.38
2023-05-01T14:27:03.006Z,100843.81
2023-05-01T14:29:33.255Z,100847.44
2023-05-01T14:32:07.132Z,100860.97
2023-05-01T14:34:37.162Z,100868.38
2023-05-01T14:37:07.482Z,100869.25
2023-05-01T14:39:37.627Z,100868.19
2023-05-01T14:42:12.100Z,100868.28
2023-05-01T14:44:44.630Z,100880.63
2023-05-01T14:47:23.069Z,100858.81
2023-05-01T14:49:56.535Z,100856.47
2023-05-01T14:52:26.962Z,100852.59
2023-05-01T14:54:57.010Z,100854.47
2023-05-01T14:57:29.167Z,100863.59
2023-05-01T14:59:59.482Z,100873.38
2023-05-01T15:02:31.393Z,100865.41
2023-05-01T15:05:02.691Z,100857.69
2023-05-01T15:07:33.262Z,100846.00
2023-05-01T15:10:03.196Z,100842.38
2023-05-01T15:12:33.656Z,100851.84
2023-05-01T15:15:04.368Z,100846.66
2023-05-01T15:17:35.003Z,100851.25
2023-05-01T15:20:05.067Z,100851.00
2023-05-01T15:22:34.789Z,100848.72
2023-05-01T15:25:05.192Z,100846.53
2023-05-01T15:27:34.922Z,100842.81
2023-05-01T15:30:06.415Z,100838.00
2023-05-01T15:32:36.546Z,100825.59
2023-05-01T15:35:07.181Z,100829.28
2023-05-01T15:37:37.218Z,100828.91
2023-05-01T15:40:10.053Z,100826.28
2023-05-01T15:42:41.134Z,100821.94
2023-05-01T15:45:12.423Z,100823.06
2023-05-01T15:47:42.350Z,100822.84
2023-05-01T15:50:13.176Z,100812.72
2023-05-01T15:52:43.190Z,100798.84
2023-05-01T15:55:14.127Z,100802.72
2023-05-01T15:57:50.460Z,100798.38
2023-05-01T16:00:22.821Z,100805.91
2023-05-01T16:02:53.368Z,100803.25
2023-05-01T16:05:23.533Z,100797.03
2023-05-01T16:07:56.981Z,100796.91
2023-05-01T16:10:26.975Z,100806.72
2023-05-01T16:12:57.456Z,100792.63
2023-05-01T16:15:27.402Z,100793.16
2023-05-01T16:17:57.809Z,100788.88
2023-05-01T16:20:30.550Z,100787.00
2023-05-01T16:23:00.869Z,100788.97
2023-05-01T16:25:30.787Z,100778.81
2023-05-01T16:28:01.234Z,100766.84
2023-05-01T16:30:31.147Z,100773.81
2023-05-01T16:33:04.366Z,100766.00
2023-05-01T16:35:34.270Z,100768.47
2023-05-01T16:38:04.765Z,100768.59
2023-05-01T16:40:34.944Z,100767.66
2023-05-01T16:43:05.800Z,100757.00
2023-05-01T16:45:35.990Z,100760.66
2023-05-01T16:48:06.713Z,100759.13
2023-05-01T16:50:42.403Z,100750.84
2023-05-01T16:53:12.749Z,100745.03
2023-05-01T16:55:42.988Z,100741.59
2023-05-01T16:58:13.392Z,100744.53
2023-05-01T17:00:44.417Z,100741.25
2023-05-01T17:03:16.580Z,100747.00
2023-05-01T17:05:46.662Z,100736.59
2023-05-01T17:08:17.344Z,100732.97
2023-05-01T17:10:47.238Z,100735.47
2023-05-01T17:13:17.578Z,100730.19
2023-05-01T17:15:47.674Z,100726.59
2023-05-01T17:18:18.047Z,100725.41
2023-05-01T17:20:49.653Z,100723.06
2023-05-01T17:23:20.040Z,100728.88
2023-05-01T17:25:49.962Z,100734.13
2023-05-01T17:28:20.378Z,100727.84
2023-05-01T17:30:50.421Z,100714.56
2023-05-01T17:33:20.848Z,100708.06
2023-05-01T17:35:50.919Z,100709.66
2023-05-01T17:38:21.286Z,100705.91
2023-05-01T17:40:51.225Z,100698.56
2023-05-01T17:43:21.956Z,100699.94
2023-05-01T17:45:51.929Z,100703.66
2023-05-01T17:48:23.024Z,100700.63
2023-05-01T17:50:53.295Z,100694.22
2023-05-01T17:53:24.418Z,100699.34
2023-05-01T17:55:54.540Z,100692.47
2023-05-01T17:58:24.915Z,100693.72
2023-05-01T18:00:57.008Z,100698.81
2023-05-01T18:03:29.573Z,100700.69
2023-05-01T18:06:03.619Z,100703.41
2023-05-01T18:08:34.084Z,100704.56
2023-05-01T18:11:05.008Z,100701.53
2023-05-01T18:13:39.307Z,100701.28
2023-05-01T18:16:09.667Z,100707.09
2023-05-01T18:18:40.286Z,100713.13
2023-05-01T18:21:10.292Z,100712.06
2023-05-01T18:23:41.038Z,100703.63
2023-05-01T18:26:10.933Z,100703.09
2023-05-01T18:28:41.250Z,100703.22
2023-05-01T18:31:11.186Z,100703.50
2023-05-01T18:33:41.727Z,100716.78
2023-05-01T18:36:11.838Z,100704.44
2023-05-01T18:38:42.300Z,100711.59
2023-05-01T18:41:12.977Z,100721.47
2023-05-01T18:43:44.401Z,100730.56
2023-05-01T18:46:14.354Z,100719.13
2023-05-01T18:48:44.770Z,100717.50
2023-05-01T18:51:15.896Z,100725.78
2023-05-01T18:53:46.259Z,100720.97
2023-05-01T18:56:16.189Z,100733.25
2023-05-01T18:58:46.633Z,100737.78
2023-05-01T19:01:16.706Z,100739.47
2023-05-01T19:03:47.225Z,100738.03
2023-05-01T19:06:17.231Z,100741.56
2023-05-01T19:08:47.653Z,100749.31
2023-05-01T19:11:18.097Z,100750.50
2023-05-01T19:13:48.729Z,100765.38
2023-05-01T19:16:18.806Z,100770.09
2023-05-01T19:18:49.286Z,100771.06
2023-05-01T19:21:19.375Z,100764.13
2023-05-01T19:23:50.233Z,100761.81
2023-05-01T19:26:20.164Z,100770.66
2023-05-01T19:28:50.562Z,100772.09
2023-05-01T19:31:20.913Z,100770.09
2023-05-01T19:33:51.392Z,100758.50
2023-05-01T19:36:23.227Z,100749.19
2023-05-01T19:38:53.120Z,100754.69
2023-05-01T19:41:22.907Z,100751.09
2023-05-01T19:43:52.714Z,100756.38
2023-05-01T19:46:23.110Z,100764.84
2023-05-01T19:48:53.470Z,100766.09
2023-05-01T19:51:23.741Z,100759.84
2023-05-01T19:53:53.507Z,100762.00
2023-05-01T19:56:25.708Z,100771.16
2023-05-01T19:58:56.201Z,100765.84
2023-05-01T20:01:26.696Z,100771.22
2023-05-01T20:03:56.787Z,100774.09
2023-05-01T20:06:27.558Z,100787.41
2023-05-01T20:08:57.580Z,100782.88
2023-05-01T20:11:28.159Z,100786.44
2023-05-01T20:13:58.200Z,100780.31
2023-05-01T20:16:29.123Z,100783.56
2023-05-01T20:18:59.070Z,100783.22
2023-05-01T20:21:29.487Z,100793.97
2023-05-01T20:23:59.450Z,100802.34
2023-05-01T20:26:29.890Z,100804.06
2023-05-01T20:28:59.908Z,100808.41
2023-05-01T20:31:30.386Z,100824.03
2023-05-01T20:34:00.360Z,100830.09
2023-05-01T20:36:30.758Z,100828.47
2023-05-01T20:39:00.646Z,100830.78
2023-05-01T20:41:32.006Z,100830.97
2023-05-01T20:44:03.469Z,100817.47
2023-05-01T20:46:33.860Z,100811.00
2023-05-01T20:49:03.846Z,100826.00
2023-05-01T20:51:34.302Z,100818.97
2023-05-01T20:54:04.215Z,100825.81
2023-05-01T20:56:34.569Z,100831.09
2023-05-01T20:59:06.002Z,100842.09
2023-05-01T21:01:36.699Z,100842.47
2023-05-01T21:04:07.388Z,100842.34
2023-05-01T21:06:37.987Z,100863.72
2023-05-01T21:09:09.630Z,100859.84
2023-05-01T21:11:42.941Z,100853.28
2023-05-01T21:14:13.079Z,100846.91
2023-05-01T21:16:43.890Z,100851.56
2023-05-01T21:19:16.510Z,100849.28
2023-05-01T21:21:46.506Z,100848.41
2023-05-01T21:24:24.821Z,100842.94
2023-05-01T21:26:56.006Z,100851.53
2023-05-01T21:29:26.438Z,100848.88
2023-05-01T21:31:56.467Z,100848.91
2023-05-01T21:34:26.954Z,100849.13
2023-05-01T21:36:56.859Z,100857.91
2023-05-01T21:39:27.890Z,100850.22
2023-05-01T21:41:58.534Z,100850.03
2023-05-01T21:44:32.152Z,100854.69
2023-05-01T21:47:03.630Z,100855.25
2023-05-01T21:49:33.904Z,100864.00
2023-05-01T21:52:04.343Z,100853.09
2023-05-01T21:54:35.902Z,100858.81
2023-05-01T21:57:09.226Z,100862.75
2023-05-01T21:59:40.215Z,100871.88
2023-05-01T22:02:12.112Z,100885.25
2023-05-01T22:04:42.644Z,100882.06
2023-05-01T22:07:13.323Z,100886.00
2023-05-01T22:09:43.279Z,100887.09
2023-05-01T22:12:13.637Z,100883.84
2023-05-01T22:14:47.490Z,100888.56
2023-05-01T22:17:25.089Z,100888.00
2023-05-01T22:19:55.208Z,100888.19
2023-05-01T22:22:25.669Z,100893.91
2023-05-01T22:24:55.600Z,100888.56
2023-05-01T22:27:25.948Z,100892.50
2023-05-01T22:29:55.891Z,100888.22
2023-05-01T22:32:26.468Z,100884.84
2023-05-01T22:34:56.720Z,100890.72
2023-05-01T22:37:27.388Z,100903.94
2023-05-01T22:39:57.837Z,100901.59
2023-05-01T22:42:28.500Z,100905.72
2023-05-01T22:44:58.455Z,100906.81
2023-05-01T22:47:28.915Z,100906.44
2023-05-01T22:49:59.332Z,100901.78
2023-05-01T22:52:29.834Z,100895.94
2023-05-01T22:54:59.840Z,100901.78
2023-05-01T22:57:30.126Z,100901.09
2023-05-01T23:00:00.557Z,100914.66
2023-05-01T23:02:31.486Z,100909.31
2023-05-01T23:05:01.402Z,100918.94
2023-05-01T23:07:34.565Z,100926.09
2023-05-01T23:10:04.503Z,100940.34
2023-05-01T23:12:35.181Z,100948.88
2023-05-01T23:15:05.863Z,100944.59
2023-05-01T23:17:37.155Z,100947.13
2023-05-01T23:20:14.108Z,100950.53
2023-05-01T23:22:44.002Z,100959.78
2023-05-01T23:25:15.305Z,100957.47
2023-05-01T23:27:49.465Z,100954.09
2023-05-01T23:30:23.134Z,100958.19
2023-05-01T23:32:53.524Z,100952.47
2023-05-01T23:35:27.164Z,100948.00
2023-05-01T23:37:57.176Z,100949.63
2023-05-01T23:40:27.576Z,100949.63
2023-05-01T23:42:57.332Z,100951.25
2023-05-01T23:45:27.936Z,100962.63
2023-05-01T23:47:58.356Z,100963.34
2023-05-01T23:50:28.986Z,100959.97
2023-05-01T23:52:59.253Z,100959.09
2023-05-01T23:55:29.689Z,100967.13
2023-05-01T23:57:59.586Z,100971.75
